Time;durP1;ratioP1;P1;durP2;ratioP2;P2;SDS_P1;SDS_P2;PMS_P1;PMS_P2;Temp;Humidity;BMP_temperature;BMP_pressure;BME280_temperature;BME280_humidity;BME280_pressure;Samples;Min_cycle;Max_cycle;Signal;HPM_P1;HPM_P2
2023/02/23 00:03:00;;;;;;;10.20;6.60;;;;;;;-1.41;58.58;100593.46;103627;1257;113916;-65
2023/02/23 00:05:29;;;;;;;11.50;7.30;;;;;;;-1.46;58.81;100595.55;103295;1257;138473;-66
2023/02/23 00:08:16;;;;;;;11.10;7.40;;;;;;;-1.48;58.61;100591.76;102593;1257;1003171;-65
2023/02/23 00:11:05;;;;;;;10.50;7.00;;;;;;;-1.51;58.59;100585.20;103487;1260;138344;-65
2023/02/23 00:13:55;;;;;;;11.00;6.60;;;;;;;-1.56;58.62;100584.94;102347;1257;1002642;-65
2023/02/23 00:16:44;;;;;;;9.50;6.90;;;;;;;-1.59;58.77;100579.42;103132;1257;138389;-66
2023/02/23 00:19:36;;;;;;;10.60;6.60;;;;;;;-1.62;58.40;100579.34;103282;1262;107802;-65
2023/02/23 00:22:15;;;;;;;10.60;6.80;;;;;;;-1.65;58.80;100579.26;103213;1260;138616;-65
2023/02/23 00:25:06;;;;;;;10.90;7.50;;;;;;;-1.67;59.03;100579.38;103093;1257;107771;-65
2023/02/23 00:27:54;;;;;;;12.30;7.40;;;;;;;-1.68;59.03;100578.02;102252;1257;1003779;-65
2023/02/23 00:30:22;;;;;;;10.30;6.90;;;;;;;-1.68;58.57;100580.73;102903;1260;111840;-65
2023/02/23 00:33:00;;;;;;;10.70;7.20;;;;;;;-1.71;59.07;100581.88;103371;1257;106758;-66
2023/02/23 00:35:30;;;;;;;9.90;6.80;;;;;;;-1.72;59.07;100575.37;102844;1257;138488;-65
2023/02/23 00:37:57;;;;;;;9.30;6.70;;;;;;;-1.73;59.11;100572.95;101637;1257;1003611;-65
2023/02/23 00:40:45;;;;;;;12.20;7.50;;;;;;;-1.74;59.29;100570.54;102825;1257;139028;-65
2023/02/23 00:43:17;;;;;;;12.60;7.50;;;;;;;-1.76;59.66;100570.16;102232;1260;1003044;-66
2023/02/23 00:46:07;;;;;;;11.70;7.30;;;;;;;-1.77;59.66;100565.89;103080;1260;138328;-66
2023/02/23 00:48:35;;;;;;;9.50;6.50;;;;;;;-1.76;59.55;100559.25;102984;1257;97878;-66
2023/02/23 00:51:25;;;;;;;10.00;6.90;;;;;;;-1.78;59.92;100562.11;102693;1263;138018;-67
2023/02/23 00:54:06;;;;;;;10.40;6.50;;;;;;;-1.77;59.79;100561.10;102899;1257;97806;-66
2023/02/23 00:56:34;;;;;;;10.70;7.00;;;;;;;-1.79;59.84;100554.92;103099;1257;111056;-66
2023/02/23 00:59:21;;;;;;;13.90;7.10;;;;;;;-1.82;59.92;100551.09;102844;1257;139065;-66
2023/02/23 01:02:09;;;;;;;11.60;6.90;;;;;;;-1.82;59.91;100553.66;102992;1258;97825;-66
2023/02/23 01:04:57;;;;;;;11.30;7.20;;;;;;;-1.83;59.96;100547.69;102855;1257;137877;-65
2023/02/23 01:07:27;;;;;;;9.50;6.60;;;;;;;-1.84;60.00;100542.36;103015;1260;97848;-66
2023/02/23 01:09:59;;;;;;;12.80;8.10;;;;;;;-1.86;60.12;100546.26;102186;1257;1003180;-65
2023/02/23 01:12:40;;;;;;;13.60;7.40;;;;;;;-1.88;60.14;100541.25;102208;1257;1002957;-65
2023/02/23 01:15:27;;;;;;;11.60;6.80;;;;;;;-1.90;60.28;100549.23;102798;1258;138879;-65
2023/02/23 01:18:16;;;;;;;11.50;6.50;;;;;;;-1.92;60.37;100552.25;102963;1257;107070;-65
2023/02/23 01:21:05;;;;;;;11.50;7.10;;;;;;;-1.92;60.57;100546.64;103013;1259;98245;-65
2023/02/23 01:23:33;;;;;;;12.90;7.20;;;;;;;-1.91;60.79;100540.68;102724;1263;138577;-65
2023/02/23 01:26:24;;;;;;;11.70;7.00;;;;;;;-1.89;60.63;100541.25;102068;1258;1003668;-66
2023/02/23 01:28:55;;;;;;;11.80;7.20;;;;;;;-1.87;60.66;100542.14;102743;1257;139325;-66
2023/02/23 01:31:29;;;;;;;10.80;7.20;;;;;;;-1.83;60.93;100543.58;102930;1262;108827;-66
2023/02/23 01:34:08;;;;;;;10.50;7.00;;;;;;;-1.82;60.92;100543.09;102210;1258;1002952;-66
2023/02/23 01:36:48;;;;;;;11.40;7.50;;;;;;;-1.83;60.67;100539.99;102963;1262;112206;-66
2023/02/23 01:39:36;;;;;;;12.40;7.10;;;;;;;-1.84;60.92;100533.85;101393;1257;1003525;-66
2023/02/23 01:42:24;;;;;;;13.40;7.40;;;;;;;-1.84;61.15;100535.38;102365;1260;1003676;-66
2023/02/23 01:45:26;;;;;;;11.80;7.40;;;;;;;-1.85;61.09;100534.52;102971;1261;108702;-65
2023/02/23 01:48:16;;;;;;;13.90;7.60;;;;;;;-1.86;61.28;100530.39;102005;1257;1003545;-65
2023/02/23 01:50:59;;;;;;;13.20;7.80;;;;;;;-1.88;61.45;100524.89;102852;1259;111058;-65
2023/02/23 01:53:34;;;;;;;10.20;7.40;;;;;;;-1.88;61.55;100528.30;101945;1257;1002930;-65
2023/02/23 01:56:10;;;;;;;10.90;7.20;;;;;;;-1.90;61.63;100525.55;102997;1257;98741;-65
2023/02/23 01:58:44;;;;;;;11.30;7.00;;;;;;;-1.92;61.54;100522.78;102845;1258;138604;-65
2023/02/23 02:01:14;;;;;;;12.90;7.80;;;;;;;-1.94;61.68;100526.64;102931;1260;98540;-66
2023/02/23 02:04:00;;;;;;;11.90;7.20;;;;;;;-1.96;62.16;100520.45;103047;1257;138677;-65
2023/02/23 02:06:52;;;;;;;12.00;7.40;;;;;;;-1.98;62.40;100515.13;103525;1257;108703;-65
2023/02/23 02:09:36;;;;;;;12.10;7.70;;;;;;;-1.98;62.59;100517.68;101410;1257;1015336;-65
2023/02/23 02:12:25;;;;;;;12.50;8.10;;;;;;;-1.97;62.73;100511.23;102841;1257;107429;-65
2023/02/23 02:15:05;;;;;;;11.60;7.70;;;;;;;-1.96;62.91;100513.30;101967;1263;1002900;-65
2023/02/23 02:17:46;;;;;;;12.30;8.00;;;;;;;-1.96;63.40;100512.80;102562;1257;1018188;-65
2023/02/23 02:20:51;;;;;;;12.50;7.70;;;;;;;-1.97;63.59;100511.59;103364;1258;106615;-66
2023/02/23 02:23:55;;;;;;;15.80;7.90;;;;;;;-1.99;63.91;100513.05;103171;1258;138719;-65
2023/02/23 02:27:00;;;;;;;11.40;7.50;;;;;;;-2.00;64.32;100511.84;102938;1257;106081;-65
2023/02/23 02:30:14;;;;;;;13.20;7.70;;;;;;;-1.99;64.46;100512.19;102166;1257;1002997;-65
2023/02/23 02:33:19;;;;;;;12.30;7.00;;;;;;;-1.98;64.35;100508.13;103072;1257;111976;-65
2023/02/23 02:36:39;;;;;;;12.50;8.00;;;;;;;-1.95;64.49;100510.77;101913;1260;1003353;-65
2023/02/23 02:39:22;;;;;;;13.00;8.10;;;;;;;-1.94;64.71;100508.75;103428;1260;96973;-65
2023/02/23 02:42:31;;;;;;;13.30;8.00;;;;;;;-1.94;64.97;100508.75;102689;1261;107915;-65
2023/02/23 02:45:11;;;;;;;14.50;8.50;;;;;;;-1.95;65.30;100507.54;102961;1260;97726;-65
2023/02/23 02:47:46;;;;;;;13.80;8.50;;;;;;;-1.97;65.40;100506.13;102848;1262;138533;-65
2023/02/23 02:50:41;;;;;;;13.20;8.60;;;;;;;-1.97;65.36;100509.19;102717;1260;108776;-65
2023/02/23 02:53:39;;;;;;;13.90;8.50;;;;;;;-1.95;65.39;100510.95;102299;1264;1003745;-65
2023/02/23 02:56:12;;;;;;;13.80;8.40;;;;;;;-1.95;65.85;100510.09;102348;1261;1003798;-66
2023/02/23 02:58:42;;;;;;;12.70;7.70;;;;;;;-1.94;65.57;100508.75;102950;1261;138992;-65
2023/02/23 04:18:17;;;;;;;15.10;9.20;;;;;;;-1.63;71.09;100508.05;102824;1259;107963;-66
2023/02/23 04:20:56;;;;;;;13.40;8.80;;;;;;;-1.61;71.06;100513.05;103101;1260;97793;-66
2023/02/23 04:23:25;;;;;;;16.70;8.90;;;;;;;-1.59;71.39;100510.53;103298;1261;139023;-66
2023/02/23 04:25:58;;;;;;;14.80;8.30;;;;;;;-1.56;71.37;100511.77;102943;1257;97790;-66
2023/02/23 04:28:36;;;;;;;14.30;8.60;;;;;;;-1.55;71.51;100503.62;102957;1257;138595;-66
2023/02/23 04:31:24;;;;;;;14.00;8.60;;;;;;;-1.54;71.47;100499.90;102858;1259;110613;-66
2023/02/23 04:33:52;;;;;;;17.30;9.10;;;;;;;-1.52;71.81;100498.23;102028;1260;1002631;-66
2023/02/23 04:36:23;;;;;;;17.30;8.00;;;;;;;-1.52;72.45;100497.71;102502;1260;1003385;-66
2023/02/23 04:38:54;;;;;;;14.00;8.20;;;;;;;-1.53;72.05;100496.51;102598;1257;1002854;-66
2023/02/23 04:41:21;;;;;;;14.70;8.90;;;;;;;-1.53;72.20;100496.52;102712;1258;138882;-66
2023/02/23 04:43:49;;;;;;;14.20;8.40;;;;;;;-1.52;72.57;100494.98;102141;1261;1003284;-66
2023/02/23 04:46:19;;;;;;;13.30;8.10;;;;;;;-1.50;72.26;100491.60;102852;1261;139598;-66
2023/02/23 04:48:55;;;;;;;13.10;8.30;;;;;;;-1.50;72.84;100493.48;102886;1263;107473;-66
2023/02/23 04:51:29;;;;;;;12.10;7.80;;;;;;;-1.49;72.61;100489.92;102814;1261;99633;-66
2023/02/23 04:54:17;;;;;;;16.00;8.40;;;;;;;-1.50;72.97;100491.95;103096;1261;111198;-66
2023/02/23 04:57:05;;;;;;;13.30;7.90;;;;;;;-1.49;72.91;100492.64;102752;1261;111070;-66
2023/02/23 04:59:44;;;;;;;13.60;7.80;;;;;;;-1.48;73.11;100497.27;102750;1261;138732;-66
2023/02/23 05:02:20;;;;;;;12.60;8.20;;;;;;;-1.48;73.16;100496.77;102018;1259;1003376;-66
2023/02/23 05:05:09;;;;;;;13.80;8.20;;;;;;;-1.49;73.48;100490.78;102675;1258;138894;-65
2023/02/23 05:07:57;;;;;;;11.30;7.40;;;;;;;-1.49;73.65;100494.35;103151;1257;111266;-66
2023/02/23 05:10:27;;;;;;;12.80;7.90;;;;;;;-1.50;73.86;100490.75;102011;1257;1003102;-66
2023/02/23 05:13:00;;;;;;;15.80;8.80;;;;;;;-1.52;74.05;100499.42;102843;1262;97707;-65
2023/02/23 05:15:47;;;;;;;18.20;8.20;;;;;;;-1.53;73.84;100493.61;102777;1258;138947;-66
2023/02/23 05:18:17;;;;;;;13.70;7.80;;;;;;;-1.53;74.15;100490.36;102122;1257;1002992;-65
2023/02/23 05:21:01;;;;;;;14.60;7.80;;;;;;;-1.54;74.01;100487.10;102898;1263;112026;-66
2023/02/23 05:23:35;;;;;;;15.10;8.50;;;;;;;-1.53;74.05;100489.52;102655;1257;138947;-66
2023/02/23 05:26:04;;;;;;;16.10;8.20;;;;;;;-1.54;74.38;100494.44;102095;1258;1002979;-66
2023/02/23 05:28:41;;;;;;;14.00;8.50;;;;;;;-1.56;74.43;100487.40;102747;1258;138933;-66
2023/02/23 05:31:09;;;;;;;14.50;8.60;;;;;;;-1.57;74.44;100486.70;103123;1258;97780;-66
2023/02/23 05:33:44;;;;;;;14.70;8.90;;;;;;;-1.56;74.16;100489.45;102783;1262;138805;-66
2023/02/23 05:36:16;;;;;;;19.40;9.30;;;;;;;-1.56;74.31;100484.52;103111;1257;107253;-66
2023/02/23 05:38:47;;;;;;;13.60;8.20;;;;;;;-1.55;74.61;100485.04;102920;1263;97912;-66
2023/02/23 05:41:28;;;;;;;14.20;8.80;;;;;;;-1.55;74.47;100483.67;103118;1260;138614;-66
2023/02/23 05:44:16;;;;;;;15.10;8.30;;;;;;;-1.53;74.67;100488.14;102142;1259;1002933;-66
2023/02/23 05:46:47;;;;;;;15.60;8.60;;;;;;;-1.52;74.67;100489.19;102894;1257;138882;-65
2023/02/23 05:49:18;;;;;;;13.90;8.40;;;;;;;-1.52;74.87;100495.34;102130;1257;1003767;-65
2023/02/23 05:52:06;;;;;;;15.50;8.50;;;;;;;-1.50;74.40;100496.73;102941;1258;139074;-66
2023/02/23 05:54:54;;;;;;;14.40;8.20;;;;;;;-1.49;74.71;100492.65;103249;1257;107509;-66
2023/02/23 05:57:24;;;;;;;15.80;9.20;;;;;;;-1.47;74.79;100492.86;102819;1258;97803;-66
2023/02/23 05:59:51;;;;;;;13.30;8.70;;;;;;;-1.46;74.78;100493.39;102828;1258;138540;-65
2023/02/23 06:02:19;;;;;;;14.40;8.60;;;;;;;-1.44;74.92;100495.12;102880;1257;108285;-66
2023/02/23 06:04:49;;;;;;;13.60;8.60;;;;;;;-1.43;74.70;100495.52;102146;1257;1003597;-65
2023/02/23 06:07:20;;;;;;;13.70;8.60;;;;;;;-1.42;74.87;100494.36;102958;1257;107232;-65
2023/02/23 06:09:51;;;;;;;14.10;8.10;;;;;;;-1.39;74.69;100498.15;102848;1257;138962;-66
2023/02/23 06:12:22;;;;;;;14.70;8.60;;;;;;;-1.36;74.70;100499.58;102880;1262;113970;-65
2023/02/23 06:14:52;;;;;;;15.40;8.40;;;;;;;-1.33;74.54;100501.34;102341;1261;1003601;-66
2023/02/23 06:17:23;;;;;;;14.80;7.90;;;;;;;-1.30;74.63;100502.23;102879;1261;139458;-66
2023/02/23 06:19:54;;;;;;;17.30;8.30;;;;;;;-1.27;74.42;100505.05;102199;1257;1003066;-66
2023/02/23 06:22:26;;;;;;;12.70;8.00;;;;;;;-1.21;74.12;100503.11;102981;1261;139092;-66
2023/02/23 06:25:11;;;;;;;12.90;7.70;;;;;;;-1.15;74.05;100504.41;102972;1258;112283;-65
2023/02/23 06:27:49;;;;;;;14.40;7.30;;;;;;;-1.09;73.97;100503.17;103063;1257;139047;-66
2023/02/23 06:30:18;;;;;;;13.70;8.30;;;;;;;-1.02;73.72;100508.25;103045;1259;97848;-65
2023/02/23 06:32:46;;;;;;;15.80;7.80;;;;;;;-0.95;73.52;100509.41;102326;1258;1002989;-66
2023/02/23 06:35:16;;;;;;;14.40;7.00;;;;;;;-0.87;73.25;100507.69;102982;1259;138801;-66
2023/02/23 06:38:05;;;;;;;14.70;8.10;;;;;;;-0.79;73.14;100509.70;103000;1257;111242;-65
2023/02/23 06:40:45;;;;;;;13.10;7.50;;;;;;;-0.69;72.87;100512.79;102883;1257;138514;-66
2023/02/23 06:43:33;;;;;;;13.60;7.60;;;;;;;-0.57;72.35;100514.85;102399;1259;1003300;-66
2023/02/23 06:46:05;;;;;;;15.40;7.10;;;;;;;-0.47;72.02;100515.21;102953;1263;139148;-66
2023/02/23 06:48:56;;;;;;;13.50;7.70;;;;;;;-0.37;71.72;100510.60;102991;1258;97876;-66
2023/02/23 06:51:27;;;;;;;10.20;6.80;;;;;;;-0.27;71.35;100510.58;103351;1257;112159;-66
2023/02/23 06:53:55;;;;;;;13.20;7.20;;;;;;;-0.13;71.17;100507.39;104062;1258;139237;-66
2023/02/23 06:56:25;;;;;;;12.30;7.00;;;;;;;0.02;70.70;100507.95;102420;1258;1004019;-66
2023/02/23 06:59:02;;;;;;;13.10;6.90;;;;;;;0.12;70.49;100505.00;102295;1257;1003744;-66
2023/02/23 07:01:30;;;;;;;11.60;7.10;;;;;;;0.20;70.26;100506.16;102085;1258;1003180;-67
2023/02/23 07:04:04;;;;;;;13.70;7.20;;;;;;;0.26;69.88;100507.78;102897;1261;138707;-66
2023/02/23 07:06:34;;;;;;;13.70;7.70;;;;;;;0.31;69.38;100510.23;103009;1257;106770;-66
2023/02/23 07:09:04;;;;;;;13.30;7.20;;;;;;;0.35;69.26;100502.24;102692;1258;97904;-66
2023/02/23 07:11:31;;;;;;;12.80;7.80;;;;;;;0.38;69.12;100505.72;102909;1257;138192;-66
2023/02/23 07:14:20;;;;;;;12.80;7.30;;;;;;;0.48;68.81;100506.19;103196;1258;97756;-66
2023/02/23 07:16:57;;;;;;;12.80;7.50;;;;;;;0.53;68.50;100508.48;102899;1257;139158;-66
2023/02/23 07:19:41;;;;;;;12.60;7.50;;;;;;;0.59;68.47;100507.19;102918;1262;107654;-65
2023/02/23 07:22:29;;;;;;;14.30;6.90;;;;;;;0.66;68.36;100502.13;103144;1258;138382;-66
2023/02/23 07:25:17;;;;;;;12.80;7.80;;;;;;;0.74;67.97;100504.62;102970;1261;108859;-66
2023/02/23 07:27:55;;;;;;;11.10;7.00;;;;;;;0.85;68.23;100495.50;102732;1261;140095;-65
2023/02/23 07:30:43;;;;;;;14.50;7.40;;;;;;;1.08;67.49;100494.38;102975;1257;114219;-66
2023/02/23 07:33:31;;;;;;;13.30;7.60;;;;;;;1.20;67.21;100495.02;102933;1258;108670;-67
2023/02/23 07:36:19;;;;;;;13.80;7.70;;;;;;;1.31;66.73;100491.70;102820;1257;97861;-67
2023/02/23 07:39:01;;;;;;;18.30;8.00;;;;;;;1.39;66.23;100496.05;102807;1258;108762;-67
2023/02/23 07:41:33;;;;;;;12.20;7.30;;;;;;;1.48;66.39;100489.79;102340;1263;1003077;-67
2023/02/23 07:44:07;;;;;;;14.10;7.20;;;;;;;1.62;65.92;100492.81;103153;1257;1002755;-67
2023/02/23 07:46:45;;;;;;;12.90;7.90;;;;;;;1.77;65.77;100481.96;102755;1257;1002881;-67
2023/02/23 07:49:12;;;;;;;12.90;7.50;;;;;;;2.15;65.67;100482.20;102918;1257;98359;-67
2023/02/23 07:51:40;;;;;;;12.30;7.20;;;;;;;2.59;64.63;100478.98;102964;1263;108577;-67
2023/02/23 07:54:12;;;;;;;12.80;7.60;;;;;;;3.09;63.41;100475.36;102857;1258;97793;-67
2023/02/23 07:56:52;;;;;;;13.10;7.60;;;;;;;3.62;62.64;100467.32;102937;1258;111691;-67
2023/02/23 07:59:40;;;;;;;11.40;7.10;;;;;;;4.03;60.75;100460.05;103862;1258;138026;-66
2023/02/23 08:02:29;;;;;;;11.90;7.60;;;;;;;4.02;60.15;100454.02;103098;1257;97809;-65
2023/02/23 08:04:59;;;;;;;13.50;7.50;;;;;;;4.41;59.40;100456.32;103394;1257;137536;-65
2023/02/23 08:07:46;;;;;;;11.90;7.20;;;;;;;5.10;59.12;100444.24;102853;1260;98356;-65
2023/02/23 08:10:25;;;;;;;12.70;7.20;;;;;;;5.94;58.99;100435.95;102734;1258;137707;-65
2023/02/23 08:13:05;;;;;;;12.80;7.40;;;;;;;6.70;57.20;100437.33;102942;1258;107001;-64
2023/02/23 08:15:33;;;;;;;13.90;7.10;;;;;;;7.03;54.09;100442.06;103362;1257;97791;-65
2023/02/23 08:18:11;;;;;;;14.00;7.50;;;;;;;6.75;52.40;100436.39;103035;1258;107480;-65
2023/02/23 08:20:39;;;;;;;14.60;7.60;;;;;;;6.44;52.73;100438.00;103202;1258;98207;-65
2023/02/23 08:23:17;;;;;;;15.70;7.60;;;;;;;6.30;54.17;100430.58;103627;1257;137619;-66
2023/02/23 08:25:56;;;;;;;11.70;7.30;;;;;;;6.39;54.56;100425.11;103155;1257;106003;-66
2023/02/23 08:28:45;;;;;;;14.30;7.70;;;;;;;6.28;53.48;100430.25;103206;1262;138533;-68
2023/02/23 08:31:24;;;;;;;12.60;7.00;;;;;;;6.03;53.65;100426.73;103511;1258;107824;-66
2023/02/23 08:33:52;;;;;;;11.00;7.50;;;;;;;5.89;53.32;100428.59;103842;1258;137923;-66
2023/02/23 08:36:40;;;;;;;12.20;7.90;;;;;;;5.71;52.82;100436.33;103070;1258;111646;-65
2023/02/23 08:39:32;;;;;;;12.90;8.40;;;;;;;5.51;53.60;100431.35;103055;1258;107712;-65
2023/02/23 08:42:00;;;;;;;12.80;7.20;;;;;;;5.58;54.29;100425.77;103072;1259;137725;-64
2023/02/23 08:44:27;;;;;;;10.60;7.60;;;;;;;5.86;54.04;100417.73;102681;1260;107797;-65
2023/02/23 08:46:57;;;;;;;10.30;7.50;;;;;;;6.13;53.46;100421.95;102466;1263;137908;-65
2023/02/23 08:49:26;;;;;;;12.30;7.80;;;;;;;6.24;53.30;100421.33;103962;1260;112387;-65
2023/02/23 08:51:53;;;;;;;16.50;7.60;;;;;;;6.37;52.79;100416.86;103297;1263;138018;-65
2023/02/23 08:54:21;;;;;;;13.20;7.90;;;;;;;6.46;53.49;100411.04;102635;1265;97845;-65
2023/02/23 08:56:49;;;;;;;14.80;7.50;;;;;;;6.52;52.73;100412.02;102999;1260;107152;-65
2023/02/23 08:59:17;;;;;;;11.70;7.80;;;;;;;6.49;52.22;100414.13;102416;1263;137811;-65
2023/02/23 09:02:06;;;;;;;11.50;8.00;;;;;;;6.53;52.56;100406.80;102602;1263;112129;-65
2023/02/23 09:04:43;;;;;;;13.00;8.50;;;;;;;6.65;51.43;100417.88;102755;1263;137704;-65
2023/02/23 09:07:16;;;;;;;11.50;8.20;;;;;;;6.71;51.20;100423.13;102715;1261;97819;-64
2023/02/23 09:09:44;;;;;;;12.20;8.20;;;;;;;6.86;50.35;100423.80;102586;1260;108398;-65
2023/02/23 09:12:13;;;;;;;11.10;8.00;;;;;;;7.02;50.08;100413.20;102612;1261;97787;-65
2023/02/23 09:14:41;;;;;;;10.30;7.90;;;;;;;7.22;49.66;100407.18;102527;1261;111825;-65
2023/02/23 09:17:21;;;;;;;11.80;7.70;;;;;;;7.47;49.50;100398.45;102357;1260;139323;-65
2023/02/23 09:20:12;;;;;;;11.90;7.90;;;;;;;7.69;49.47;100392.38;103825;1261;97585;-66
2023/02/23 09:22:50;;;;;;;9.60;7.60;;;;;;;7.86;49.47;100392.73;102751;1263;138113;-65
2023/02/23 09:25:21;;;;;;;12.40;8.20;;;;;;;8.12;49.73;100384.11;102610;1263;97822;-65
2023/02/23 09:28:11;;;;;;;12.50;8.30;;;;;;;8.25;48.29;100384.37;103257;1261;137972;-64
2023/02/23 09:30:43;;;;;;;13.00;8.00;;;;;;;8.07;48.85;100374.84;102488;1263;108459;-65
2023/02/23 09:33:31;;;;;;;11.50;7.50;;;;;;;8.07;50.63;100377.27;102475;1261;97710;-65
2023/02/23 09:36:15;;;;;;;13.60;8.10;;;;;;;8.00;50.83;100375.69;102390;1258;137563;-65
2023/02/23 09:38:56;;;;;;;21.90;8.50;;;;;;;7.79;50.16;100370.55;102670;1265;97794;-65
2023/02/23 09:42:08;;;;;;;24.10;8.30;;;;;;;7.63;50.31;100368.94;102379;1263;137936;-63
2023/02/23 09:45:13;;;;;;;12.30;8.40;;;;;;;7.78;52.32;100359.83;102338;1261;107897;-67
2023/02/23 09:48:06;;;;;;;14.40;8.30;;;;;;;7.98;50.88;100360.31;102687;1263;137950;-64
2023/02/23 09:50:48;;;;;;;17.80;8.70;;;;;;;8.03;50.37;100362.11;102833;1261;108346;-62
2023/02/23 09:53:37;;;;;;;11.10;7.90;;;;;;;7.84;48.50;100365.27;103115;1260;137964;-62
2023/02/23 09:56:23;;;;;;;14.30;8.40;;;;;;;7.56;48.71;100368.02;102568;1264;111616;-61
2023/02/23 09:59:02;;;;;;;14.40;10.20;;;;;;;7.40;48.91;100352.92;102485;1263;138218;-64
2023/02/23 10:01:45;;;;;;;13.80;8.20;;;;;;;7.38;49.71;100353.11;101917;1258;1003051;-64
2023/02/23 10:04:38;;;;;;;14.80;8.30;;;;;;;7.70;49.87;100345.61;100526;1260;138191;-75
2023/02/23 10:07:34;;;;;;;13.60;7.70;;;;;;;8.13;49.63;100349.79;102659;1263;98425;-70
2023/02/23 10:10:28;;;;;;;12.50;8.00;;;;;;;8.32;47.97;100355.30;102603;1261;137819;-68
2023/02/23 10:13:04;;;;;;;14.10;8.90;;;;;;;8.38;47.83;100336.47;102747;1263;97692;-66
2023/02/23 10:15:58;;;;;;;14.10;8.30;;;;;;;8.42;47.86;100338.98;102710;1263;112515;-66
2023/02/23 10:18:46;;;;;;;15.00;8.80;;;;;;;8.46;47.53;100343.92;102683;1263;107769;-66
2023/02/23 10:21:34;;;;;;;13.30;8.60;;;;;;;8.47;48.15;100333.17;102753;1263;97800;-68
2023/02/23 10:24:11;;;;;;;10.10;7.50;;;;;;;8.69;49.07;100320.71;102711;1263;137628;-68
2023/02/23 10:27:04;;;;;;;11.90;7.90;;;;;;;9.02;47.78;100332.39;102727;1267;97806;-66
2023/02/23 10:29:41;;;;;;;15.50;8.80;;;;;;;8.90;46.65;100336.67;102617;1263;137675;-66
2023/02/23 10:32:37;;;;;;;15.40;8.30;;;;;;;8.64;46.93;100326.71;102913;1263;108125;-67
2023/02/23 10:35:28;;;;;;;13.00;8.60;;;;;;;8.36;46.80;100322.65;102572;1261;137866;-68
2023/02/23 10:38:00;;;;;;;15.30;9.30;;;;;;;8.27;47.50;100317.98;102792;1262;105944;-67
2023/02/23 10:40:31;;;;;;;11.50;9.00;;;;;;;8.24;47.88;100303.31;102691;1263;138039;-67
2023/02/23 10:43:11;;;;;;;11.70;8.70;;;;;;;8.25;47.72;100307.27;102813;1261;112197;-68
2023/02/23 10:45:43;;;;;;;12.90;8.60;;;;;;;8.18;47.18;100303.62;102668;1260;109136;-69
2023/02/23 10:48:24;;;;;;;13.80;9.20;;;;;;;7.97;47.08;100310.48;102679;1263;98539;-69
2023/02/23 10:50:59;;;;;;;13.70;8.50;;;;;;;7.67;47.30;100316.27;102473;1260;108904;-69
2023/02/23 10:53:38;;;;;;;14.60;8.60;;;;;;;7.46;48.10;100293.83;102514;1263;137696;-69
2023/02/23 10:56:20;;;;;;;12.20;8.60;;;;;;;7.35;48.43;100296.77;102740;1261;112289;-69
2023/02/23 10:58:59;;;;;;;13.70;8.80;;;;;;;7.27;49.07;100277.55;102573;1263;137756;-65
2023/02/23 11:01:44;;;;;;;13.10;9.20;;;;;;;7.38;50.37;100273.89;104126;1260;97458;-70
2023/02/23 11:04:31;;;;;;;15.30;9.70;;;;;;;7.49;49.31;100271.77;103448;1260;137835;-69
2023/02/23 11:07:15;;;;;;;13.80;9.20;;;;;;;7.40;49.49;100262.45;102674;1263;97797;-69
2023/02/23 11:09:54;;;;;;;13.00;9.50;;;;;;;7.33;49.46;100266.20;102543;1263;111105;-69
2023/02/23 11:12:27;;;;;;;15.10;9.30;;;;;;;7.18;49.56;100260.26;101948;1260;1003789;-69
2023/02/23 11:15:30;;;;;;;13.90;9.20;;;;;;;7.04;49.97;100259.64;102684;1263;98351;-69
2023/02/23 11:18:28;;;;;;;12.80;8.70;;;;;;;6.82;50.18;100254.14;102871;1264;109506;-68
2023/02/23 11:21:12;;;;;;;15.70;9.20;;;;;;;6.57;49.98;100253.86;102710;1263;97808;-70
2023/02/23 11:23:53;;;;;;;17.30;9.60;;;;;;;6.31;50.83;100248.55;102673;1263;138375;-69
2023/02/23 11:26:43;;;;;;;14.60;9.30;;;;;;;6.03;51.15;100247.73;102919;1263;106795;-69
2023/02/23 11:29:35;;;;;;;14.80;9.60;;;;;;;5.81;51.99;100239.04;102755;1259;137782;-68
2023/02/23 11:32:08;;;;;;;14.90;9.90;;;;;;;5.69;52.32;100239.35;102848;1261;108686;-69
2023/02/23 11:35:30;;;;;;;16.20;9.50;;;;;;;5.64;52.95;100229.08;102262;1260;1002384;-69
2023/02/23 11:38:26;;;;;;;15.80;9.20;;;;;;;5.68;53.01;100225.73;102829;1259;111510;-69
2023/02/23 11:41:24;;;;;;;13.50;9.30;;;;;;;5.73;53.03;100226.36;102708;1261;137732;-70
2023/02/23 11:44:22;;;;;;;16.80;9.40;;;;;;;5.73;53.08;100216.52;102710;1263;97806;-70
2023/02/23 11:47:03;;;;;;;15.80;9.10;;;;;;;5.79;53.12;100219.39;102696;1260;137561;-70
2023/02/23 11:49:38;;;;;;;14.70;9.30;;;;;;;5.77;52.99;100219.08;102763;1261;97697;-69
2023/02/23 11:52:14;;;;;;;13.90;9.50;;;;;;;5.69;52.74;100216.23;102742;1261;110709;-68
2023/02/23 11:55:07;;;;;;;14.60;9.40;;;;;;;5.65;53.24;100206.11;102689;1263;107596;-68
2023/02/23 11:57:48;;;;;;;15.10;9.40;;;;;;;5.69;53.82;100210.20;102744;1261;98267;-68
2023/02/23 12:00:27;;;;;;;14.80;8.80;;;;;;;5.67;53.53;100198.67;102600;1263;137341;-68
2023/02/23 12:03:24;;;;;;;14.70;8.80;;;;;;;5.63;53.30;100196.65;101986;1263;1002846;-68
2023/02/23 12:05:58;;;;;;;13.70;8.80;;;;;;;5.56;53.40;100194.16;102628;1261;137889;-69
2023/02/23 12:08:50;;;;;;;17.00;9.50;;;;;;;5.47;53.77;100182.71;102697;1263;108766;-68
2023/02/23 12:11:43;;;;;;;13.60;8.80;;;;;;;5.47;53.88;100180.48;102612;1261;137634;-68
2023/02/23 12:14:32;;;;;;;16.60;8.90;;;;;;;5.45;54.08;100170.84;102802;1261;109699;-69
2023/02/23 12:17:16;;;;;;;13.30;8.20;;;;;;;5.42;53.58;100172.42;102679;1263;138108;-68
2023/02/23 12:20:11;;;;;;;15.00;8.40;;;;;;;5.34;54.06;100167.69;102843;1263;113319;-68
2023/02/23 12:23:02;;;;;;;13.00;8.20;;;;;;;5.32;54.10;100174.27;102801;1260;138258;-69
2023/02/23 12:25:47;;;;;;;15.30;8.70;;;;;;;5.30;54.22;100156.71;102796;1270;98389;-70
2023/02/23 12:28:33;;;;;;;12.70;8.20;;;;;;;5.32;54.47;100159.27;103359;1259;137628;-68
2023/02/23 12:31:28;;;;;;;14.30;8.70;;;;;;;5.33;54.12;100157.19;103314;1260;97802;-68
2023/02/23 12:34:22;;;;;;;14.70;8.50;;;;;;;5.34;54.21;100147.52;102663;1263;137594;-68
2023/02/23 12:36:58;;;;;;;12.20;8.20;;;;;;;5.35;54.36;100145.59;102010;1260;1003525;-68
2023/02/23 12:39:50;;;;;;;12.50;8.00;;;;;;;5.38;54.30;100141.27;102870;1260;97675;-68
2023/02/23 12:42:24;;;;;;;13.00;8.30;;;;;;;5.35;53.92;100155.77;102576;1260;137458;-68
2023/02/23 12:44:56;;;;;;;14.40;7.70;;;;;;;5.29;54.29;100136.55;102696;1260;97756;-68
2023/02/23 12:47:40;;;;;;;13.80;8.30;;;;;;;5.28;54.51;100127.94;102552;1260;1002515;-68
2023/02/23 12:50:27;;;;;;;14.00;8.20;;;;;;;5.28;54.69;100134.67;102639;1271;107602;-68
2023/02/23 12:53:21;;;;;;;13.10;8.70;;;;;;;5.21;54.45;100126.66;102723;1261;137602;-69
2023/02/23 12:56:23;;;;;;;15.60;8.60;;;;;;;5.18;54.97;100120.48;102654;1263;107489;-69
2023/02/23 12:59:34;;;;;;;14.20;8.10;;;;;;;5.15;54.85;100122.41;102557;1260;137689;-69
2023/02/23 13:02:30;;;;;;;13.80;8.10;;;;;;;5.16;55.13;100109.98;102589;1263;111471;-69
2023/02/23 13:05:27;;;;;;;16.50;8.50;;;;;;;5.17;55.07;100105.66;101717;1260;1003857;-69
2023/02/23 13:08:33;;;;;;;17.10;8.70;;;;;;;5.14;54.79;100106.74;102817;1261;98206;-69
2023/02/23 13:11:35;;;;;;;14.10;8.60;;;;;;;5.10;55.09;100104.56;102441;1263;137627;-69
2023/02/23 13:14:13;;;;;;;15.80;8.90;;;;;;;5.07;55.26;100107.70;102608;1263;97874;-69
2023/02/23 13:17:08;;;;;;;13.90;8.30;;;;;;;5.01;55.09;100103.80;102526;1260;137457;-69
2023/02/23 13:19:48;;;;;;;13.60;8.00;;;;;;;4.99;55.63;100086.25;102602;1264;106677;-69
2023/02/23 13:22:42;;;;;;;17.00;8.30;;;;;;;5.02;55.76;100086.22;102475;1260;137888;-69
2023/02/23 13:25:40;;;;;;;14.00;8.10;;;;;;;5.07;55.81;100079.61;102524;1261;107690;-68
2023/02/23 13:28:39;;;;;;;13.80;8.20;;;;;;;5.09;55.78;100073.90;101821;1260;1003533;-68
2023/02/23 13:31:23;;;;;;;16.10;7.80;;;;;;;5.10;55.98;100062.34;102727;1260;111527;-68